Time;durP1;ratioP1;P1;durP2;ratioP2;P2;SDS_P1;SDS_P2;PMS_P1;PMS_P2;Temp;Humidity;BMP_temperature;BMP_pressure;BME280_temperature;BME280_humidity;BME280_pressure;Samples;Min_cycle;Max_cycle;Signal;HPM_P1;HPM_P2
2022/04/29 03:50:48;;;;;;;6.40;5.05;;;;;;;9.59;76.82;101345.72;6622831;26;20048;-91
2022/04/29 03:53:51;;;;;;;7.32;5.60;;;;;;;9.65;77.11;101342.47;6637728;26;34415;-89
2022/04/29 03:56:54;;;;;;;7.03;5.32;;;;;;;9.67;76.30;101353.91;6645805;26;33128;-89
2022/04/29 03:59:57;;;;;;;6.87;5.70;;;;;;;9.74;78.16;101355.03;6633780;26;33005;-88
2022/04/29 04:03:05;;;;;;;7.55;5.50;;;;;;;9.83;80.37;101350.59;6616389;26;34767;-88
2022/04/29 04:09:31;;;;;;;11.32;5.55;;;;;;;10.17;73.38;101361.56;6634918;26;33518;-88
2022/04/29 04:12:53;;;;;;;6.70;5.37;;;;;;;10.35;72.32;101361.63;6614205;26;32481;-88
2022/04/29 04:15:56;;;;;;;8.27;5.70;;;;;;;10.47;72.87;101358.72;6634646;26;34117;-88
2022/04/29 04:19:00;;;;;;;7.32;5.25;;;;;;;10.52;72.16;101359.94;6634698;26;33364;-87
2022/04/29 04:22:03;;;;;;;8.43;5.62;;;;;;;10.64;71.72;101361.41;6615237;26;32738;-87
2022/04/29 04:25:10;;;;;;;6.87;5.90;;;;;;;10.73;72.73;101365.03;6641272;26;33886;-87
2022/04/29 04:28:13;;;;;;;7.47;5.75;;;;;;;10.78;72.18;101365.41;6613997;26;33042;-88
2022/04/29 04:31:16;;;;;;;6.87;5.43;;;;;;;10.82;71.21;101371.31;6633509;26;33336;-87
2022/04/29 04:37:41;;;;;;;10.38;5.80;;;;;;;10.94;72.23;101371.94;6634897;26;33437;-88
2022/04/29 04:40:44;;;;;;;8.18;5.30;;;;;;;10.99;74.51;101381.25;6615220;26;32419;-88
2022/04/29 04:43:52;;;;;;;5.93;5.18;;;;;;;11.12;71.17;101381.69;6634705;26;33141;-88
2022/04/29 04:46:55;;;;;;;8.50;5.03;;;;;;;11.18;70.22;101385.63;6615412;26;32400;-88
2022/04/29 04:50:00;;;;;;;6.55;5.25;;;;;;;11.30;70.13;101387.06;6615734;26;33781;-88
2022/04/29 04:53:02;;;;;;;6.57;5.18;;;;;;;11.34;70.72;101387.56;6637408;26;33528;-88
2022/04/29 04:56:05;;;;;;;7.25;5.87;;;;;;;11.38;68.11;101393.50;6618641;26;32392;-88
2022/04/29 04:59:08;;;;;;;6.72;5.20;;;;;;;11.42;68.79;101390.31;6637960;26;34411;-88
2022/04/29 05:02:11;;;;;;;7.47;5.07;;;;;;;11.49;70.62;101396.78;6617983;26;32034;-88
2022/04/29 05:05:16;;;;;;;7.45;5.37;;;;;;;11.65;68.21;101395.19;6636527;26;32388;-88
2022/04/29 05:08:19;;;;;;;8.65;5.68;;;;;;;11.72;66.19;101391.69;6635824;26;35092;-92
2022/04/29 05:11:21;;;;;;;9.85;5.93;;;;;;;11.83;66.05;101397.81;6636274;26;33518;-91
2022/04/29 05:14:45;;;;;;;8.07;5.87;;;;;;;11.86;66.16;101394.84;6637099;26;33448;-89
2022/04/29 05:17:48;;;;;;;8.10;5.62;;;;;;;11.98;66.19;101402.47;6646102;26;34440;-89
2022/04/29 05:20:53;;;;;;;8.40;5.85;;;;;;;12.19;66.36;101393.09;6616395;26;32369;-88
2022/04/29 05:23:56;;;;;;;7.18;5.95;;;;;;;12.32;68.01;101403.47;6614350;26;31868;-88
2022/04/29 05:27:03;;;;;;;7.87;5.60;;;;;;;12.39;66.09;101405.31;6616954;26;32498;-88
2022/04/29 05:30:12;;;;;;;8.52;5.70;;;;;;;12.51;65.15;101405.84;6615268;26;31875;-88
2022/04/29 05:33:16;;;;;;;8.10;5.90;;;;;;;12.69;64.58;101403.00;6613948;26;32223;-88
2022/04/29 05:36:40;;;;;;;9.35;6.03;;;;;;;12.92;60.87;101405.91;6614737;26;32038;-88
2022/04/29 05:43:07;;;;;;;10.23;5.72;;;;;;;13.22;62.62;101390.91;6634267;26;33947;-88
2022/04/29 05:46:15;;;;;;;8.13;5.73;;;;;;;13.41;61.05;101396.97;6628663;26;33125;-88
2022/04/29 05:49:18;;;;;;;9.95;6.35;;;;;;;13.48;58.47;101393.41;6607623;26;32192;-88
2022/04/29 05:52:21;;;;;;;7.20;5.05;;;;;;;13.55;57.76;101393.56;6608700;26;33456;-88
2022/04/29 05:55:24;;;;;;;8.32;5.75;;;;;;;13.65;55.85;101390.66;6635876;26;34726;-88
2022/04/29 05:58:47;;;;;;;9.43;5.68;;;;;;;13.87;56.18;101389.94;6617478;26;32108;-88
2022/04/29 06:01:52;;;;;;;8.25;5.68;;;;;;;13.94;54.56;101396.31;6636069;26;34972;-88
2022/04/29 06:04:55;;;;;;;8.60;5.50;;;;;;;14.13;53.88;101405.03;6634194;26;33493;-88
2022/04/29 06:07:59;;;;;;;6.65;4.90;;;;;;;14.38;52.75;101408.50;6613938;26;33293;-88
2022/04/29 06:11:03;;;;;;;6.40;5.12;;;;;;;14.31;49.17;101413.78;6638793;26;33521;-88
2022/04/29 06:14:06;;;;;;;10.13;5.45;;;;;;;14.52;52.09;101415.91;6636951;26;33303;-92
2022/04/29 06:17:12;;;;;;;6.80;4.75;;;;;;;14.68;51.71;101413.09;6615249;26;33713;-92
2022/04/29 06:20:26;;;;;;;8.52;4.90;;;;;;;14.94;49.86;101409.16;6616746;26;32022;-88
2022/04/29 06:23:35;;;;;;;9.82;5.20;;;;;;;15.06;47.69;101413.13;6610522;27;33691;-88
2022/04/29 06:26:38;;;;;;;6.72;4.95;;;;;;;15.04;45.78;101409.78;6613333;27;34948;-89
2022/04/29 06:29:44;;;;;;;7.47;5.15;;;;;;;15.02;47.22;101406.41;6608967;27;33524;-88
2022/04/29 06:32:53;;;;;;;8.55;5.10;;;;;;;15.29;47.59;101407.69;6587650;27;31776;-89
2022/04/29 06:35:57;;;;;;;5.85;4.32;;;;;;;15.61;46.53;101413.81;6619461;27;34680;-89
2022/04/29 06:39:00;;;;;;;6.20;4.97;;;;;;;15.82;45.93;101423.97;6626523;26;33958;-89
2022/04/29 06:42:07;;;;;;;7.80;4.30;;;;;;;15.89;43.26;101415.94;6587527;27;32134;-89
2022/04/29 06:45:16;;;;;;;6.82;4.47;;;;;;;16.02;43.18;101416.13;6588024;27;32159;-89
2022/04/29 06:48:22;;;;;;;9.73;4.18;;;;;;;15.90;43.23;101420.34;6586955;27;32502;-89
2022/04/29 06:51:31;;;;;;;5.18;4.35;;;;;;;15.91;43.46;101417.41;6608600;27;32251;-89
2022/04/29 06:54:34;;;;;;;7.45;4.10;;;;;;;15.96;43.10;101416.87;6588215;27;31419;-88
2022/04/29 06:57:39;;;;;;;6.75;4.10;;;;;;;16.26;43.78;101423.97;6588540;27;32085;-89
2022/04/29 07:00:43;;;;;;;7.00;4.07;;;;;;;16.46;41.77;101413.31;6597192;27;33206;-89
2022/04/29 07:03:46;;;;;;;5.90;3.85;;;;;;;16.61;41.36;101412.44;6615015;27;32776;-88
2022/04/29 07:06:54;;;;;;;6.15;4.05;;;;;;;16.72;40.97;101407.34;6600442;27;32544;-88
2022/04/29 07:09:57;;;;;;;5.60;4.03;;;;;;;16.80;41.89;101416.47;6617846;27;33435;-89
2022/04/29 07:13:08;;;;;;;5.45;3.65;;;;;;;16.77;41.46;101413.09;6597476;27;31566;-89
2022/04/29 07:16:13;;;;;;;6.72;3.83;;;;;;;16.85;40.70;101408.53;6579044;27;32023;-92
2022/04/29 07:19:18;;;;;;;8.00;4.00;;;;;;;16.83;40.01;101410.63;6581309;27;32751;-92
2022/04/29 07:22:23;;;;;;;6.80;3.70;;;;;;;16.94;40.08;101408.25;6600061;27;32255;-89
2022/04/29 07:25:26;;;;;;;4.72;3.60;;;;;;;17.10;41.13;101396.22;6604753;27;33217;-89
2022/04/29 07:28:29;;;;;;;6.75;3.83;;;;;;;17.14;40.44;101402.13;6622047;27;33810;-89
2022/04/29 07:31:33;;;;;;;5.05;3.85;;;;;;;17.23;39.93;101409.97;6591598;27;32794;-89
2022/04/29 07:44:46;;;;;;;3.50;3.10;;;;;;;17.67;39.31;101403.37;6587897;27;32269;-89
2022/04/29 07:47:50;;;;;;;4.40;3.12;;;;;;;17.94;37.49;101400.84;6589094;27;33321;-89
2022/04/29 07:50:54;;;;;;;4.60;3.40;;;;;;;18.13;37.98;101399.25;6608420;27;34228;-89
2022/04/29 07:53:57;;;;;;;7.10;3.50;;;;;;;18.08;37.09;101396.31;6609456;27;33961;-89
2022/04/29 07:57:00;;;;;;;5.07;3.10;;;;;;;17.98;35.33;101396.66;6607757;27;33398;-88
2022/04/29 08:00:04;;;;;;;3.83;3.42;;;;;;;17.95;36.79;101390.78;6608942;27;33435;-87
2022/04/29 08:03:18;;;;;;;3.90;3.50;;;;;;;18.24;37.66;101395.12;6593283;27;31408;-87
2022/04/29 08:06:23;;;;;;;4.47;2.90;;;;;;;18.54;37.26;101395.63;6570701;27;31844;-88
2022/04/29 08:09:26;;;;;;;4.93;3.40;;;;;;;18.30;35.10;101394.31;6591250;27;32786;-88
2022/04/29 08:12:29;;;;;;;6.25;3.65;;;;;;;18.30;36.18;101395.12;6610587;27;33552;-88
2022/04/29 08:15:43;;;;;;;5.65;3.33;;;;;;;18.35;35.17;101384.47;6592159;27;35540;-89
2022/04/29 08:18:47;;;;;;;6.87;3.80;;;;;;;18.44;33.87;101381.56;6592649;27;31895;-89
2022/04/29 08:21:51;;;;;;;6.87;3.25;;;;;;;18.05;34.26;101394.84;6592396;27;32642;-88
2022/04/29 08:24:58;;;;;;;4.45;3.40;;;;;;;18.05;35.56;101383.94;6616543;27;34522;-92
2022/04/29 08:28:04;;;;;;;9.23;3.10;;;;;;;18.30;33.39;101381.50;6590067;27;32244;-93
2022/04/29 08:31:08;;;;;;;4.47;2.97;;;;;;;18.31;35.19;101385.94;6611312;27;33738;-89
2022/04/29 08:34:11;;;;;;;3.65;2.87;;;;;;;18.54;34.97;101382.87;6588824;27;32635;-89
2022/04/29 08:37:14;;;;;;;4.15;2.83;;;;;;;18.29;34.02;101377.09;6589083;27;33118;-88
2022/04/29 08:40:17;;;;;;;14.10;3.60;;;;;;;18.63;35.93;101374.47;6585232;27;33174;-88
2022/04/29 08:43:22;;;;;;;6.25;3.55;;;;;;;18.82;35.57;101378.31;6604931;27;34161;-88
2022/04/29 08:46:25;;;;;;;3.60;3.00;;;;;;;18.98;34.98;101375.16;6607776;27;33388;-88
2022/04/29 08:49:34;;;;;;;7.43;3.80;;;;;;;19.10;34.37;101369.94;6583353;27;31815;-89
2022/04/29 08:52:44;;;;;;;4.37;3.15;;;;;;;19.21;35.31;101367.41;6605146;27;33989;-89
2022/04/29 08:59:09;;;;;;;4.00;3.30;;;;;;;19.40;34.04;101370.34;6586252;27;32567;-89
2022/04/29 09:02:12;;;;;;;4.12;3.20;;;;;;;19.19;33.94;101364.06;6606158;27;33472;-89
2022/04/29 09:05:15;;;;;;;5.20;3.33;;;;;;;19.06;32.35;101361.31;6585037;27;32266;-89
2022/04/29 09:08:21;;;;;;;6.82;2.90;;;;;;;19.22;32.09;101347.25;6587771;27;32175;-88
2022/04/29 09:11:26;;;;;;;5.72;3.30;;;;;;;19.51;34.68;101353.31;6590615;27;32725;-89
2022/04/29 09:14:29;;;;;;;3.20;2.90;;;;;;;19.85;34.98;101346.72;6593615;27;32136;-89
2022/04/29 09:17:31;;;;;;;5.37;2.80;;;;;;;19.89;33.04;101339.78;6613520;27;33352;-89
2022/04/29 09:20:35;;;;;;;4.15;2.95;;;;;;;19.97;33.19;101338.69;6588324;27;32462;-90
2022/04/29 09:23:54;;;;;;;5.72;2.83;;;;;;;19.45;31.19;101340.50;6594501;26;33332;-89
2022/04/29 09:27:05;;;;;;;5.53;2.53;;;;;;;19.88;31.12;101335.34;6607593;27;32529;-89
2022/04/29 09:30:09;;;;;;;8.35;3.40;;;;;;;20.49;29.99;101338.66;6612386;26;35008;-89
2022/04/29 09:33:23;;;;;;;9.07;3.03;;;;;;;21.16;29.86;101331.63;6589282;27;32697;-87
2022/04/29 09:36:27;;;;;;;4.12;3.10;;;;;;;21.40;30.08;101326.38;6600859;27;33633;-89
2022/04/29 09:39:31;;;;;;;3.85;3.20;;;;;;;21.12;31.85;101321.34;6587715;27;34101;-90
2022/04/29 09:42:37;;;;;;;4.75;3.00;;;;;;;21.25;29.56;101323.97;6609369;27;33899;-89
2022/04/29 09:45:42;;;;;;;5.32;2.80;;;;;;;20.99;29.64;101319.56;6588731;27;33778;-93
2022/04/29 09:48:52;;;;;;;5.15;2.95;;;;;;;20.86;28.71;101323.28;6610022;27;34817;-93
2022/04/29 09:56:06;;;;;;;5.20;2.67;;;;;;;20.53;29.91;101318.88;6636483;26;20056;-88
2022/04/29 09:59:09;;;;;;;4.70;3.15;;;;;;;20.64;28.93;101314.56;6643778;26;33562;-88
2022/04/29 10:02:18;;;;;;;5.75;3.17;;;;;;;20.43;30.44;101317.66;6657258;26;33535;-89
2022/04/29 10:05:22;;;;;;;3.55;2.95;;;;;;;19.94;29.81;101326.28;6624954;26;33211;-88
2022/04/29 10:08:26;;;;;;;4.90;3.22;;;;;;;19.72;29.46;101316.72;6636294;26;33356;-88
2022/04/29 10:11:35;;;;;;;3.45;2.75;;;;;;;19.67;30.28;101313.78;6617552;26;31703;-88
2022/04/29 10:14:38;;;;;;;3.15;2.85;;;;;;;19.86;30.24;101312.91;6620213;26;32087;-88
2022/04/29 10:21:15;;;;;;;3.10;2.80;;;;;;;20.03;30.55;101307.75;6616168;26;32492;-88
2022/04/29 10:24:18;;;;;;;4.80;2.97;;;;;;;21.02;29.33;101308.16;6636022;26;33077;-89
2022/04/29 10:27:21;;;;;;;3.35;2.65;;;;;;;21.25;28.77;101300.16;6636588;26;33073;-88
2022/04/29 10:30:27;;;;;;;3.75;3.20;;;;;;;21.65;29.22;101299.75;6635071;26;33571;-89
2022/04/29 10:33:30;;;;;;;3.67;2.58;;;;;;;21.51;26.00;101293.59;6634920;26;35031;-93
2022/04/29 10:36:33;;;;;;;4.40;2.70;;;;;;;21.94;29.43;101289.09;6614720;26;32234;-92
2022/04/29 10:39:36;;;;;;;4.10;2.72;;;;;;;21.88;26.78;101270.78;6635568;26;35114;-92
2022/04/29 10:43:07;;;;;;;2.92;2.40;;;;;;;21.71;26.18;101287.03;6604181;26;301856;-89
2022/04/29 10:46:10;;;;;;;3.92;2.47;;;;;;;21.51;25.59;101279.88;6614684;26;32154;-88
2022/04/29 10:49:28;;;;;;;4.28;2.70;;;;;;;20.89;25.85;101286.41;6615245;26;32102;-88
2022/04/29 10:52:31;;;;;;;3.85;2.53;;;;;;;20.70;30.71;101277.28;6616965;26;31660;-88
2022/04/29 10:55:34;;;;;;;2.90;2.60;;;;;;;20.29;27.46;101286.81;6622970;26;31928;-88
2022/04/29 10:58:45;;;;;;;2.72;2.53;;;;;;;20.05;29.76;101278.31;6615159;26;33678;-88
2022/04/29 11:02:13;;;;;;;4.20;2.83;;;;;;;20.92;28.90;101273.09;6635281;26;34277;-88
2022/04/29 11:05:37;;;;;;;2.62;2.42;;;;;;;22.69;26.51;101261.16;6614459;26;31812;-89
2022/04/29 11:08:41;;;;;;;3.08;2.78;;;;;;;24.44;23.98;101258.34;6617655;26;34231;-89
2022/04/29 11:11:44;;;;;;;4.95;3.00;;;;;;;24.27;24.17;101262.97;6639123;26;33894;-88
2022/04/29 11:15:23;;;;;;;4.12;3.00;;;;;;;22.71;25.59;101255.47;6616249;26;32329;-88
2022/04/29 11:19:19;;;;;;;4.85;2.85;;;;;;;21.41;27.12;101256.81;6567528;26;20048;-89
2022/04/29 11:26:02;;;;;;;2.78;2.58;;;;;;;22.76;25.49;101247.34;6638202;26;34918;-88
2022/04/29 11:29:11;;;;;;;3.80;2.80;;;;;;;23.90;26.36;101247.72;6618394;26;34933;-87
2022/04/29 11:32:23;;;;;;;2.75;2.50;;;;;;;25.30;22.49;101233.25;6635606;26;34044;-87
2022/04/29 11:35:27;;;;;;;3.67;2.65;;;;;;;26.62;20.18;101225.62;6636480;26;33372;-88
2022/04/29 11:38:32;;;;;;;2.83;2.50;;;;;;;28.04;19.03;101230.22;6635813;26;33516;-87
2022/04/29 11:41:35;;;;;;;3.05;2.42;;;;;;;29.11;17.92;101223.87;6615011;26;32760;-86
2022/04/29 11:44:40;;;;;;;3.55;2.40;;;;;;;29.88;19.04;101219.97;6615859;26;32427;-87
2022/04/29 11:47:44;;;;;;;2.45;2.25;;;;;;;31.15;18.62;101212.50;6616468;26;33048;-87
2022/04/29 11:50:46;;;;;;;3.72;2.20;;;;;;;31.71;17.99;101208.19;6643440;26;33481;-88
2022/04/29 11:53:55;;;;;;;2.97;2.40;;;;;;;31.14;16.75;101208.06;6619734;26;32047;-88
2022/04/29 11:56:57;;;;;;;2.67;2.10;;;;;;;30.80;16.17;101197.88;6619231;26;31882;-88
2022/04/29 12:00:03;;;;;;;2.20;2.05;;;;;;;30.87;16.37;101201.12;6616810;26;31971;-89
2022/04/29 12:03:22;;;;;;;2.55;2.35;;;;;;;31.45;15.51;101196.59;6621795;26;33294;-90
2022/04/29 12:06:25;;;;;;;2.55;2.35;;;;;;;31.50;15.26;101191.75;6622063;26;33097;-88
2022/04/29 12:09:32;;;;;;;2.67;2.47;;;;;;;31.70;15.28;101182.31;6616053;26;32233;-88
2022/04/29 12:12:35;;;;;;;3.37;2.60;;;;;;;31.98;14.61;101183.31;6619099;26;32138;-88
2022/04/29 12:15:42;;;;;;;3.35;2.45;;;;;;;33.48;13.42;101168.28;6637865;26;33711;-89
2022/04/29 12:18:47;;;;;;;2.47;2.00;;;;;;;33.57;13.67;101178.44;6620659;26;32115;-88
2022/04/29 12:21:57;;;;;;;3.75;2.65;;;;;;;34.33;13.50;101171.34;6633054;26;31964;-88
2022/04/29 12:25:26;;;;;;;2.37;2.17;;;;;;;33.81;12.86;101175.34;6622785;26;33169;-88
2022/04/29 12:28:31;;;;;;;3.08;2.30;;;;;;;34.37;13.37;101169.56;6623904;26;32949;-89
2022/04/29 12:35:11;;;;;;;2.62;2.00;;;;;;;33.93;15.08;101155.28;6628563;26;33010;-87
2022/04/29 12:38:18;;;;;;;2.30;2.10;;;;;;;34.57;13.29;101154.25;6614839;26;32551;-88
2022/04/29 12:41:27;;;;;;;;;;;;;;;35.55;12.60;101150.31;6634185;26;33067;-88
2022/04/29 12:45:10;;;;;;;2.30;2.10;;;;;;;36.10;11.93;101150.50;6613456;26;32471;-89
2022/04/29 12:48:16;;;;;;;3.55;2.10;;;;;;;36.24;11.98;101141.91;6635991;26;33691;-89
2022/04/29 12:51:41;;;;;;;4.12;2.00;;;;;;;34.50;12.32;101141.50;6643627;26;34400;-89
2022/04/29 12:54:44;;;;;;;3.50;2.47;;;;;;;31.70;14.16;101140.53;6615520;26;33266;-89
2022/04/29 12:57:47;;;;;;;3.05;2.22;;;;;;;29.68;16.28;101144.00;6615205;26;32049;-89
2022/04/29 13:00:53;;;;;;;2.42;2.22;;;;;;;31.15;16.56;101137.38;6635256;26;33716;-90
2022/04/29 13:03:58;;;;;;;2.55;2.35;;;;;;;33.02;13.23;101131.03;6617323;26;32342;-90
2022/04/29 13:07:01;;;;;;;3.78;1.90;;;;;;;34.22;13.72;101126.06;6645932;26;33695;-90
2022/04/29 13:10:04;;;;;;;2.50;2.30;;;;;;;35.68;11.83;101126.09;6652685;26;34891;-90
2022/04/29 13:13:11;;;;;;;;;;;;;;;35.66;11.77;101123.66;6622867;26;32062;-90
2022/04/29 13:16:16;;;;;;;2.15;2.00;;;;;;;36.34;11.23;101115.50;6621119;26;33979;-90
2022/04/29 13:19:19;;;;;;;1.95;1.80;;;;;;;37.43;11.03;101111.97;6632285;26;33051;-90
2022/04/29 13:22:22;;;;;;;4.20;2.15;;;;;;;36.96;11.31;101100.88;6651669;26;33796;-90
2022/04/29 13:25:27;;;;;;;2.05;1.92;;;;;;;35.45;12.48;101098.22;6614926;26;32977;-90
2022/04/29 13:28:32;;;;;;;2.30;2.10;;;;;;;36.53;10.88;101101.91;6615332;26;32118;-90
2022/04/29 13:31:34;;;;;;;3.62;2.15;;;;;;;37.35;11.83;101090.38;6635887;26;33270;-90
2022/04/29 13:34:39;;;;;;;2.58;2.37;;;;;;;34.07;11.92;101090.94;6616197;26;32333;-90
2022/04/29 13:37:42;;;;;;;3.78;2.10;;;;;;;32.00;13.81;101094.72;6637635;26;34220;-89
2022/04/29 13:40:45;;;;;;;5.45;2.20;;;;;;;33.02;12.83;101088.34;6636050;26;33960;-90
2022/04/29 13:43:49;;;;;;;3.25;2.35;;;;;;;32.11;14.02;101089.78;6636448;26;33464;-90
2022/04/29 13:47:09;;;;;;;2.25;2.08;;;;;;;33.90;12.33;101082.41;6620048;26;33066;-90
2022/04/29 13:50:12;;;;;;;4.03;2.50;;;;;;;33.59;13.93;101086.81;6639758;26;33460;-90
2022/04/29 13:53:15;;;;;;;5.82;2.33;;;;;;;34.28;13.10;101080.03;6617947;26;32292;-90
2022/04/29 13:56:18;;;;;;;3.90;2.15;;;;;;;33.77;12.83;101081.34;6642648;26;33549;-90
2022/04/29 13:59:23;;;;;;;2.95;2.20;;;;;;;34.39;12.91;101075.81;6637082;26;34815;-90
2022/04/29 14:02:29;;;;;;;2.78;2.20;;;;;;;34.76;11.58;101074.53;6614608;26;32825;-90
2022/04/29 14:05:32;;;;;;;3.65;2.28;;;;;;;35.26;11.37;101073.34;6637196;26;34228;-90
2022/04/29 14:08:37;;;;;;;2.60;2.03;;;;;;;34.79;11.95;101063.84;6616893;26;32299;-90
2022/04/29 14:11:41;;;;;;;2.53;1.90;;;;;;;34.03;12.89;101073.16;6638634;26;34787;-90
2022/04/29 14:14:45;;;;;;;1.95;1.77;;;;;;;32.92;13.82;101067.87;6644834;26;34846;-92
2022/04/29 14:17:48;;;;;;;4.50;2.03;;;;;;;32.17;14.14;101065.44;6641527;26;33622;-93
2022/04/29 14:20:51;;;;;;;3.08;2.20;;;;;;;31.78;14.60;101058.28;6616456;26;32966;-90
2022/04/29 14:23:55;;;;;;;3.72;2.28;;;;;;;30.91;14.92;101062.31;6619235;26;33426;-90
2022/04/29 14:26:57;;;;;;;2.30;2.20;;;;;;;30.74;16.60;101046.09;6652276;26;33734;-89
2022/04/29 14:30:01;;;;;;;2.75;2.30;;;;;;;30.24;14.44;101051.09;6632260;26;32311;-90
2022/04/29 14:33:06;;;;;;;5.12;2.40;;;;;;;30.17;15.11;101051.44;6616626;26;31943;-89
2022/04/29 14:36:09;;;;;;;2.67;2.42;;;;;;;30.42;15.57;101047.59;6616870;26;33334;-89
2022/04/29 14:39:12;;;;;;;2.30;2.10;;;;;;;29.02;15.68;101061.13;6618199;26;33067;-89
2022/04/29 14:42:15;;;;;;;2.72;2.53;;;;;;;27.52;17.25;101054.09;6625277;26;34167;-90
2022/04/29 14:45:18;;;;;;;3.65;2.65;;;;;;;26.53;19.32;101060.66;6622391;26;33336;-90
2022/04/29 14:48:21;;;;;;;3.10;2.50;;;;;;;26.70;19.75;101058.53;6620272;26;32443;-90
2022/04/29 14:51:24;;;;;;;5.00;2.55;;;;;;;27.32;17.21;101059.59;6638879;26;33749;-90
2022/04/29 14:54:27;;;;;;;3.72;2.50;;;;;;;27.40;18.20;101049.94;6637832;26;33496;-90
2022/04/29 14:57:30;;;;;;;2.75;2.40;;;;;;;27.37;17.26;101052.16;6617147;26;32282;-90
2022/04/29 15:00:33;;;;;;;2.60;2.35;;;;;;;27.51;17.03;101040.56;6638342;26;33554;-90
2022/04/29 15:03:35;;;;;;;2.70;2.50;;;;;;;26.41;18.84;101042.34;6616528;26;32681;-90
2022/04/29 15:06:38;;;;;;;3.80;2.55;;;;;;;25.10;18.85;101035.41;6616525;26;32042;-89
2022/04/29 15:16:24;;;;;;;6.93;2.97;;;;;;;23.79;21.93;101036.84;6616125;26;31896;-88
2022/04/29 15:19:27;;;;;;;4.25;3.05;;;;;;;23.31;23.22;101038.16;6616291;26;32004;-88
2022/04/29 15:22:30;;;;;;;2.60;2.40;;;;;;;22.79;21.72;101035.47;6617342;26;32382;-89
2022/04/29 15:25:34;;;;;;;5.75;2.62;;;;;;;22.54;24.06;101044.00;6636887;26;33300;-89
2022/04/29 15:28:37;;;;;;;4.47;2.60;;;;;;;22.27;23.62;101030.78;6616843;26;32259;-88
2022/04/29 15:32:01;;;;;;;3.05;2.75;;;;;;;21.96;24.52;101029.19;6617524;26;32140;-89
2022/04/29 15:35:04;;;;;;;4.05;2.83;;;;;;;21.74;24.44;101032.50;6617558;26;32046;-90
2022/04/29 15:38:10;;;;;;;6.20;2.80;;;;;;;21.45;23.78;101023.28;6614913;26;31906;-90
2022/04/29 15:41:12;;;;;;;3.70;2.55;;;;;;;21.25;23.49;101022.69;6616045;26;32607;-89
2022/04/29 15:44:16;;;;;;;2.83;2.62;;;;;;;21.20;24.00;101022.56;6637552;26;34190;-90
2022/04/29 15:47:19;;;;;;;3.83;3.00;;;;;;;21.06;24.44;101017.28;6610865;26;32961;-90
2022/04/29 15:50:23;;;;;;;2.87;2.62;;;;;;;21.13;25.46;101016.34;6631393;26;34561;-92
2022/04/29 15:53:42;;;;;;;3.10;2.80;;;;;;;20.95;24.38;101020.78;6632369;26;35330;31
